Time;durP1;ratioP1;P1;durP2;ratioP2;P2;SDS_P1;SDS_P2;PMS_P1;PMS_P2;Temp;Humidity;BMP_temperature;BMP_pressure;BME280_temperature;BME280_humidity;BME280_pressure;Samples;Min_cycle;Max_cycle;Signal;HPM_P1;HPM_P2
2021/10/22 00:02:16;;;;;;;18.40;12.90;;;7.20;99.90;;;;;;5096689;28;20866;-68
2021/10/22 00:04:43;;;;;;;18.27;13.07;;;7.10;99.90;;;;;;5102939;28;20494;-69
2021/10/22 00:07:10;;;;;;;16.23;13.90;;;7.10;99.90;;;;;;5097949;28;20994;-68
2021/10/22 00:09:37;;;;;;;17.37;12.40;;;7.10;99.90;;;;;;5098004;28;20456;-68
2021/10/22 00:12:05;;;;;;;13.40;12.30;;;7.00;99.90;;;;;;5093809;28;20497;-68
2021/10/22 00:14:32;;;;;;;17.03;12.90;;;6.80;99.90;;;;;;5096711;28;20454;-69
2021/10/22 00:17:00;;;;;;;15.83;13.73;;;6.70;99.90;;;;;;5094134;28;20821;-68
2021/10/22 00:19:27;;;;;;;13.93;12.50;;;6.70;99.90;;;;;;5098503;28;20453;-69
2021/10/22 00:21:54;;;;;;;22.40;13.83;;;6.70;99.90;;;;;;5096183;28;20558;-68
2021/10/22 00:24:20;;;;;;;14.00;12.63;;;6.70;99.90;;;;;;5094598;28;20485;-68
2021/10/22 00:26:47;;;;;;;16.10;11.73;;;6.60;99.90;;;;;;5093782;28;21103;-69
2021/10/22 00:29:14;;;;;;;15.93;12.67;;;6.50;99.90;;;;;;5096725;28;20542;-69
2021/10/22 00:31:41;;;;;;;12.93;11.83;;;6.50;99.90;;;;;;5093857;28;20457;-69
2021/10/22 00:34:10;;;;;;;19.33;14.37;;;6.40;99.90;;;;;;5101324;28;20467;-70
2021/10/22 00:36:37;;;;;;;17.77;15.00;;;6.40;99.90;;;;;;5094840;28;20454;-69
2021/10/22 00:39:04;;;;;;;14.20;12.90;;;6.30;99.90;;;;;;5098116;28;20462;-69
2021/10/22 00:41:32;;;;;;;18.63;13.87;;;6.30;99.90;;;;;;5093558;28;20573;-69
2021/10/22 00:43:59;;;;;;;18.80;14.30;;;6.20;99.90;;;;;;5097533;28;20486;-68
2021/10/22 00:46:30;;;;;;;21.20;15.27;;;6.10;99.90;;;;;;5091886;28;20463;-69
2021/10/22 00:48:58;;;;;;;27.23;14.87;;;6.10;99.90;;;;;;5090323;28;20834;-69
2021/10/22 00:51:29;;;;;;;16.83;13.67;;;6.10;99.90;;;;;;5092062;28;20472;-69
2021/10/22 00:53:56;;;;;;;15.10;13.73;;;6.10;99.90;;;;;;5096493;28;21306;-69
2021/10/22 00:56:24;;;;;;;17.20;15.60;;;6.10;99.90;;;;;;5096153;28;21067;-69
2021/10/22 00:58:51;;;;;;;16.90;13.33;;;6.10;99.90;;;;;;5087177;28;20467;-69
2021/10/22 01:01:18;;;;;;;22.57;13.90;;;6.10;99.90;;;;;;5092678;28;20904;-69
2021/10/22 01:03:44;;;;;;;18.37;16.70;;;6.10;99.90;;;;;;5096985;28;20763;-69
2021/10/22 01:06:11;;;;;;;21.97;13.60;;;6.00;99.90;;;;;;5096333;28;20450;-69
2021/10/22 01:08:40;;;;;;;18.67;15.10;;;5.90;99.90;;;;;;5094645;28;20471;-69
2021/10/22 01:11:06;;;;;;;17.43;15.00;;;6.00;99.90;;;;;;5093681;28;20463;-69
2021/10/22 01:13:34;;;;;;;26.43;16.50;;;6.00;99.90;;;;;;5095371;28;20552;-69
2021/10/22 01:16:01;;;;;;;19.80;15.23;;;6.00;99.90;;;;;;5087214;28;20463;-68
2021/10/22 01:18:29;;;;;;;26.33;15.70;;;6.00;99.90;;;;;;5096071;28;20459;-69
2021/10/22 01:21:00;;;;;;;16.60;14.70;;;6.00;99.90;;;;;;5097845;28;20458;-69
2021/10/22 01:23:27;;;;;;;16.97;15.00;;;6.00;99.90;;;;;;5094446;28;20484;-69
2021/10/22 01:25:54;;;;;;;16.87;15.20;;;5.90;99.90;;;;;;5092238;28;20468;-69
2021/10/22 01:28:22;;;;;;;24.93;16.17;;;6.00;99.90;;;;;;5104003;28;20470;-69
2021/10/22 01:30:49;;;;;;;17.70;15.80;;;5.90;99.90;;;;;;5094370;28;20512;-69
2021/10/22 01:33:18;;;;;;;23.60;16.33;;;5.90;99.90;;;;;;5095811;28;20465;-69
2021/10/22 01:35:46;;;;;;;20.10;16.53;;;5.90;99.90;;;;;;5092853;28;20559;-69
2021/10/22 01:38:20;;;;;;;15.70;14.27;;;5.90;99.90;;;;;;5101592;28;20460;-69
2021/10/22 01:40:49;;;;;;;19.40;17.80;;;5.80;99.90;;;;;;5100911;28;20490;-69
2021/10/22 01:43:16;;;;;;;16.67;14.97;;;5.80;99.90;;;;;;5094350;28;20458;-69
2021/10/22 01:45:43;;;;;;;19.73;16.13;;;5.90;99.90;;;;;;5097539;28;20456;-69
2021/10/22 01:48:10;;;;;;;23.97;15.63;;;5.90;99.90;;;;;;5098203;28;20453;-69
2021/10/22 01:50:37;;;;;;;27.83;17.20;;;5.80;99.90;;;;;;5093251;28;20462;-69
2021/10/22 01:53:04;;;;;;;28.20;16.70;;;5.80;99.90;;;;;;5092656;28;20464;-69
2021/10/22 01:55:33;;;;;;;28.97;16.40;;;5.80;99.90;;;;;;5093868;28;20604;-69
2021/10/22 01:58:02;;;;;;;18.80;17.10;;;5.80;99.90;;;;;;5102143;28;22667;-69
2021/10/22 02:00:29;;;;;;;18.23;16.43;;;5.80;99.90;;;;;;5090673;28;20467;-68
2021/10/22 02:02:56;;;;;;;18.23;16.60;;;5.80;99.90;;;;;;5094668;28;20564;-68
2021/10/22 02:05:24;;;;;;;18.97;16.93;;;5.70;99.90;;;;;;5095014;28;20985;-68
2021/10/22 02:07:50;;;;;;;23.03;16.90;;;5.70;99.90;;;;;;5096168;28;20461;-68
2021/10/22 02:10:17;;;;;;;18.47;16.67;;;5.70;99.90;;;;;;5094564;28;20511;-69
2021/10/22 02:12:46;;;;;;;18.50;16.63;;;5.60;99.90;;;;;;5097484;28;21147;-68
2021/10/22 02:15:13;;;;;;;17.87;15.80;;;5.60;99.90;;;;;;5100400;28;20485;-68
2021/10/22 02:17:39;;;;;;;17.40;15.67;;;5.60;99.90;;;;;;5087787;28;20454;-68
2021/10/22 02:20:07;;;;;;;20.10;17.20;;;5.60;99.90;;;;;;5102201;28;20457;-69
2021/10/22 02:22:35;;;;;;;18.80;17.30;;;5.50;99.90;;;;;;5094760;28;20458;-68
2021/10/22 02:25:01;;;;;;;22.33;17.43;;;5.50;99.90;;;;;;5092929;28;20475;-68
2021/10/22 02:27:29;;;;;;;22.10;18.07;;;5.50;99.90;;;;;;5096714;28;20819;-68
2021/10/22 02:29:58;;;;;;;20.40;17.30;;;5.50;99.90;;;;;;5102064;28;20465;-68
2021/10/22 02:32:24;;;;;;;17.93;16.47;;;5.50;99.90;;;;;;5100248;28;20461;-68
2021/10/22 02:34:51;;;;;;;17.70;16.07;;;5.50;99.90;;;;;;5095279;28;20478;-68
2021/10/22 02:37:18;;;;;;;23.17;17.20;;;5.50;99.90;;;;;;5092787;28;20457;-69
2021/10/22 02:39:45;;;;;;;22.10;17.70;;;5.40;99.90;;;;;;5095094;28;20457;-68
2021/10/22 02:42:12;;;;;;;22.00;19.53;;;5.50;99.90;;;;;;5094098;28;20856;-68
2021/10/22 02:44:39;;;;;;;19.43;17.40;;;5.50;99.90;;;;;;5102097;28;20491;-68
2021/10/22 02:47:08;;;;;;;20.53;16.70;;;5.40;99.90;;;;;;5097682;28;20797;-68
2021/10/22 02:49:36;;;;;;;21.57;17.40;;;5.40;99.90;;;;;;5099921;28;20876;-69
2021/10/22 02:52:03;;;;;;;18.20;16.60;;;5.40;99.90;;;;;;5090021;28;20470;-68
2021/10/22 02:54:30;;;;;;;17.83;16.33;;;5.40;99.90;;;;;;5095204;28;20965;-68
2021/10/22 02:56:58;;;;;;;18.63;16.80;;;5.40;99.90;;;;;;5090798;28;20986;-68
2021/10/22 02:59:25;;;;;;;19.10;17.53;;;5.40;99.90;;;;;;5095133;28;20476;-69
2021/10/22 03:01:52;;;;;;;18.67;17.00;;;5.30;99.90;;;;;;5086684;28;21007;-68
2021/10/22 03:04:21;;;;;;;19.97;16.73;;;5.40;99.90;;;;;;5091583;28;20995;-68
2021/10/22 03:06:48;;;;;;;17.97;16.47;;;5.40;99.90;;;;;;5096939;28;20462;-68
2021/10/22 03:09:15;;;;;;;22.00;17.00;;;5.40;99.90;;;;;;5100068;28;20962;-68
2021/10/22 03:11:41;;;;;;;19.07;16.67;;;5.40;99.90;;;;;;5075437;28;20458;-68
2021/10/22 03:14:08;;;;;;;18.77;16.77;;;5.40;99.90;;;;;;5097818;28;20461;-67
2021/10/22 03:16:35;;;;;;;16.97;15.30;;;5.40;99.90;;;;;;5096070;28;20466;-68
2021/10/22 03:19:02;;;;;;;25.30;16.40;;;5.40;99.90;;;;;;5103442;28;20453;-68
2021/10/22 03:21:30;;;;;;;19.30;17.20;;;5.30;99.90;;;;;;5103643;28;20463;-68
2021/10/22 03:23:57;;;;;;;18.97;17.20;;;5.30;99.90;;;;;;5093360;28;20531;-68
2021/10/22 03:26:25;;;;;;;18.80;17.33;;;5.30;99.90;;;;;;5092359;28;21044;-68
2021/10/22 03:28:52;;;;;;;19.70;15.83;;;5.30;99.90;;;;;;5101626;28;20473;-68
2021/10/22 03:31:18;;;;;;;18.97;17.40;;;5.30;99.90;;;;;;5091668;28;20549;-68
2021/10/22 03:33:45;;;;;;;24.80;16.77;;;5.30;99.90;;;;;;5094309;28;20462;-68
2021/10/22 03:36:12;;;;;;;23.03;17.70;;;5.30;99.90;;;;;;5095626;28;20489;-68
2021/10/22 03:38:41;;;;;;;22.73;17.27;;;5.30;99.90;;;;;;5106127;28;20468;-69
2021/10/22 03:41:08;;;;;;;17.80;16.20;;;5.30;99.90;;;;;;5097025;28;20464;-68
2021/10/22 03:43:35;;;;;;;20.20;18.30;;;5.20;99.90;;;;;;5101595;28;20453;-68
2021/10/22 03:46:02;;;;;;;19.83;16.23;;;5.20;99.90;;;;;;5095148;28;20470;-69
2021/10/22 03:48:30;;;;;;;18.13;15.23;;;5.30;99.90;;;;;;5099015;28;20465;-68
2021/10/22 03:50:56;;;;;;;20.57;17.13;;;5.30;99.90;;;;;;5094382;28;20459;-68
2021/10/22 03:53:24;;;;;;;17.87;16.43;;;5.30;99.90;;;;;;5101089;28;20985;-68
2021/10/22 03:55:53;;;;;;;18.87;17.07;;;5.30;99.90;;;;;;5093027;28;20502;-68
2021/10/22 03:58:20;;;;;;;17.80;16.57;;;5.30;99.90;;;;;;5101502;28;20518;-68
2021/10/22 04:00:47;;;;;;;17.87;15.80;;;5.30;99.90;;;;;;5091657;28;20462;-68
2021/10/22 04:03:15;;;;;;;23.87;16.93;;;5.30;99.90;;;;;;5085729;28;20470;-68
2021/10/22 04:05:42;;;;;;;16.90;15.70;;;5.30;99.90;;;;;;5098553;28;20462;-68
2021/10/22 04:08:09;;;;;;;28.53;17.60;;;5.30;99.90;;;;;;5097777;28;20529;-68
2021/10/22 04:10:36;;;;;;;19.03;17.00;;;5.30;99.90;;;;;;5096620;28;20473;-68
2021/10/22 04:13:04;;;;;;;22.03;19.57;;;5.30;99.90;;;;;;5104999;28;20469;-68
2021/10/22 04:15:32;;;;;;;17.90;16.13;;;5.30;99.90;;;;;;5096313;28;20600;-68
2021/10/22 04:17:59;;;;;;;20.30;15.57;;;5.30;99.90;;;;;;5088817;28;20457;-68
2021/10/22 04:20:26;;;;;;;27.70;16.63;;;5.30;99.90;;;;;;5094090;28;20458;-68
2021/10/22 04:22:53;;;;;;;17.13;15.23;;;5.20;99.90;;;;;;5099642;28;20567;-68
2021/10/22 04:25:20;;;;;;;22.50;16.43;;;5.30;99.90;;;;;;5099994;28;20997;-68
2021/10/22 04:27:47;;;;;;;20.80;16.53;;;5.30;99.90;;;;;;5097669;28;20460;-68
2021/10/22 04:30:15;;;;;;;17.20;15.90;;;5.30;99.90;;;;;;5094385;28;20568;-68
2021/10/22 04:32:42;;;;;;;23.50;17.20;;;5.30;99.90;;;;;;5093109;28;20461;-68
2021/10/22 04:35:10;;;;;;;18.60;17.13;;;5.30;99.90;;;;;;5092341;28;20480;-68
2021/10/22 04:37:47;;;;;;;29.73;17.97;;;5.30;99.90;;;;;;5093311;28;20458;-68
2021/10/22 04:40:30;;;;;;;26.20;17.10;;;5.30;99.90;;;;;;5086584;28;20477;-68
2021/10/22 04:42:59;;;;;;;17.97;16.23;;;5.30;99.90;;;;;;5089147;28;20465;-68
2021/10/22 04:45:30;;;;;;;18.77;16.87;;;5.30;99.90;;;;;;5090905;28;20458;-68
2021/10/22 04:47:59;;;;;;;16.13;15.03;;;5.30;99.90;;;;;;5086335;28;20466;-68
2021/10/22 04:50:27;;;;;;;18.87;16.83;;;5.30;99.90;;;;;;5091886;28;20510;-68
2021/10/22 04:52:55;;;;;;;19.10;16.60;;;5.30;99.90;;;;;;5091746;28;20488;-68
2021/10/22 04:55:23;;;;;;;22.40;17.63;;;5.40;99.90;;;;;;5090612;28;20566;-68
2021/10/22 04:57:50;;;;;;;19.63;17.00;;;5.30;99.90;;;;;;5096809;28;20457;-68
2021/10/22 05:00:17;;;;;;;17.60;15.90;;;5.40;99.90;;;;;;5095273;28;20461;-68
2021/10/22 05:02:47;;;;;;;18.10;16.20;;;5.40;99.90;;;;;;5092140;28;20473;-68
2021/10/22 05:05:14;;;;;;;17.17;15.70;;;5.40;99.90;;;;;;5090641;28;20462;-68
2021/10/22 05:07:42;;;;;;;17.00;15.50;;;5.40;99.90;;;;;;5102650;28;20458;-68
2021/10/22 05:10:10;;;;;;;16.27;14.77;;;5.40;99.90;;;;;;5094652;28;20471;-68
2021/10/22 05:12:39;;;;;;;17.27;15.73;;;5.50;99.90;;;;;;5088119;28;20442;-68
2021/10/22 05:15:08;;;;;;;16.93;15.57;;;5.50;99.90;;;;;;5097334;28;21037;-69
2021/10/22 05:17:37;;;;;;;18.17;16.53;;;5.50;99.90;;;;;;5093999;28;20462;-68
2021/10/22 05:20:07;;;;;;;16.13;15.13;;;5.60;99.90;;;;;;5098823;28;20563;-68
2021/10/22 05:22:36;;;;;;;17.03;15.37;;;5.60;99.90;;;;;;5087127;28;20457;-68
2021/10/22 05:25:03;;;;;;;18.00;16.40;;;5.60;99.90;;;;;;5096598;28;20459;-68
2021/10/22 05:27:31;;;;;;;16.93;15.30;;;5.60;99.90;;;;;;5099236;28;20457;-68
2021/10/22 05:29:58;;;;;;;17.63;16.10;;;5.60;99.90;;;;;;5098141;28;20471;-68
2021/10/22 05:32:25;;;;;;;22.50;16.57;;;5.60;99.90;;;;;;5081175;28;20962;-68
2021/10/22 05:34:54;;;;;;;19.30;16.50;;;5.70;99.90;;;;;;5079396;28;20462;-68
2021/10/22 05:37:22;;;;;;;19.43;17.53;;;5.70;99.90;;;;;;5077727;28;20462;-68
2021/10/22 05:39:49;;;;;;;19.00;17.03;;;5.70;99.90;;;;;;5089864;28;20480;-68
2021/10/22 05:42:17;;;;;;;18.73;16.93;;;5.70;99.90;;;;;;5082484;28;20519;-68
2021/10/22 05:44:44;;;;;;;19.70;17.97;;;5.70;99.90;;;;;;5086329;28;20462;-68
2021/10/22 05:47:12;;;;;;;18.60;17.00;;;5.70;99.90;;;;;;5087661;28;20462;-68
2021/10/22 05:49:39;;;;;;;22.57;15.80;;;5.70;99.90;;;;;;5095411;28;20971;-68
2021/10/22 05:52:06;;;;;;;20.33;18.20;;;5.70;99.90;;;;;;5084206;28;20548;-68
2021/10/22 05:54:35;;;;;;;17.90;16.50;;;5.70;99.90;;;;;;5084513;28;20465;-68
2021/10/22 05:57:02;;;;;;;18.47;16.63;;;5.80;99.90;;;;;;5084994;28;20492;-68
2021/10/22 05:59:29;;;;;;;18.87;16.90;;;5.70;99.90;;;;;;5090704;28;20473;-68
2021/10/22 06:01:57;;;;;;;18.63;16.70;;;5.70;99.90;;;;;;5081021;28;20480;-68
2021/10/22 06:04:24;;;;;;;19.50;15.90;;;5.70;99.90;;;;;;5087477;28;20824;-68
2021/10/22 06:06:51;;;;;;;17.90;16.13;;;5.70;99.90;;;;;;5086829;28;20466;-68
2021/10/22 06:09:19;;;;;;;17.20;15.90;;;5.70;99.90;;;;;;5090619;28;21019;-68
2021/10/22 06:11:49;;;;;;;16.50;15.30;;;5.80;99.90;;;;;;5090086;28;20589;-68
2021/10/22 06:14:16;;;;;;;17.57;15.73;;;5.80;99.90;;;;;;5081190;28;20952;-69
2021/10/22 06:16:44;;;;;;;17.03;15.73;;;5.80;99.90;;;;;;5082303;28;20486;-68
2021/10/22 06:19:16;;;;;;;20.17;16.13;;;5.80;99.90;;;;;;5091787;28;20544;-68
2021/10/22 06:21:54;;;;;;;17.13;15.50;;;5.80;99.90;;;;;;5084313;28;20514;-68
2021/10/22 06:24:23;;;;;;;16.53;15.43;;;5.80;99.90;;;;;;5086074;28;20481;-68
2021/10/22 06:26:51;;;;;;;17.53;15.90;;;5.80;99.90;;;;;;5087904;28;20545;-68
2021/10/22 06:29:18;;;;;;;17.90;16.60;;;5.80;99.90;;;;;;5082902;28;20464;-68
2021/10/22 06:31:47;;;;;;;18.20;16.73;;;5.80;99.90;;;;;;5077126;28;23110;-68
2021/10/22 06:34:14;;;;;;;16.13;15.13;;;5.80;99.90;;;;;;5081424;28;20458;-68
2021/10/22 06:36:42;;;;;;;18.70;16.70;;;5.80;99.90;;;;;;5087602;28;21022;-68
2021/10/22 06:39:09;;;;;;;16.43;15.33;;;5.80;99.90;;;;;;5086635;28;20458;-68
2021/10/22 06:41:37;;;;;;;17.60;15.90;;;5.90;99.90;;;;;;5088155;28;20481;-68
2021/10/22 06:44:07;;;;;;;18.53;17.07;;;5.90;99.90;;;;;;5080216;28;20497;-68
2021/10/22 06:46:35;;;;;;;18.50;16.57;;;5.90;99.90;;;;;;5077728;28;20574;-69
2021/10/22 06:49:03;;;;;;;17.10;15.50;;;5.80;99.90;;;;;;5087732;28;20585;-69
2021/10/22 06:51:30;;;;;;;18.83;16.43;;;5.90;99.90;;;;;;5088612;28;20875;-69
2021/10/22 06:53:57;;;;;;;17.97;16.20;;;5.90;99.90;;;;;;5087188;28;20905;-68
2021/10/22 06:56:25;;;;;;;18.20;16.27;;;5.90;99.90;;;;;;5083154;28;20515;-68
2021/10/22 06:58:51;;;;;;;18.10;16.20;;;6.00;99.90;;;;;;5085256;28;20469;-69
2021/10/22 07:01:19;;;;;;;17.13;15.60;;;6.00;99.90;;;;;;5089893;28;20462;-69
2021/10/22 07:03:46;;;;;;;20.30;15.83;;;6.00;99.90;;;;;;5094542;28;20476;-69
2021/10/22 07:08:58;;;;;;;17.23;15.60;;;6.10;99.90;;;;;;5084297;28;20587;-69
2021/10/22 07:11:26;;;;;;;18.03;16.07;;;6.10;99.90;;;;;;5087989;28;20464;-68
2021/10/22 07:13:54;;;;;;;17.07;15.40;;;6.20;99.90;;;;;;5083347;28;20466;-69
2021/10/22 07:16:26;;;;;;;17.33;15.50;;;6.30;99.90;;;;;;5088871;28;20977;-69
2021/10/22 07:18:54;;;;;;;17.00;15.00;;;6.30;99.90;;;;;;5094987;28;20526;-69
2021/10/22 07:21:21;;;;;;;16.20;15.10;;;6.30;99.90;;;;;;5083714;28;20900;-69
2021/10/22 07:23:49;;;;;;;17.53;16.33;;;6.40;99.90;;;;;;5082568;28;20499;-69
2021/10/22 07:26:19;;;;;;;17.10;15.90;;;6.50;99.90;;;;;;5075717;28;20586;-69
2021/10/22 07:28:48;;;;;;;17.13;15.73;;;6.60;99.90;;;;;;5089294;28;20455;-69
2021/10/22 07:31:15;;;;;;;16.43;15.17;;;6.70;99.90;;;;;;5079471;28;20458;-69
2021/10/22 07:33:44;;;;;;;16.70;15.40;;;6.70;99.90;;;;;;5091257;28;20514;-68
2021/10/22 07:36:13;;;;;;;17.37;15.97;;;6.80;99.90;;;;;;5085406;28;20544;-69
2021/10/22 07:38:42;;;;;;;17.67;16.00;;;6.90;99.90;;;;;;5089604;28;20450;-69
2021/10/22 07:41:10;;;;;;;17.50;16.23;;;7.00;99.90;;;;;;5100640;28;21079;-69
2021/10/22 07:43:38;;;;;;;17.60;16.00;;;7.10;99.90;;;;;;5087965;28;20986;-69
2021/10/22 07:46:05;;;;;;;17.07;15.53;;;7.20;99.90;;;;;;5095628;28;20569;-69
2021/10/22 07:48:33;;;;;;;17.43;15.80;;;7.40;99.90;;;;;;5086149;28;20464;-69
2021/10/22 07:51:01;;;;;;;16.93;15.73;;;7.50;99.90;;;;;;5089102;28;20454;-69
2021/10/22 07:53:28;;;;;;;17.50;16.10;;;7.60;99.90;;;;;;5090482;28;20459;-69
2021/10/22 07:55:55;;;;;;;16.73;15.40;;;7.60;99.90;;;;;;5090926;28;20488;-69
2021/10/22 07:58:22;;;;;;;17.93;16.10;;;7.60;99.90;;;;;;5092860;28;20469;-69
2021/10/22 08:00:50;;;;;;;17.77;16.37;;;7.60;99.90;;;;;;5083101;28;20515;-69
2021/10/22 08:03:17;;;;;;;17.83;16.27;;;7.70;99.90;;;;;;5094157;28;20474;-69
2021/10/22 08:05:44;;;;;;;17.97;16.47;;;7.70;99.90;;;;;;5085555;28;20466;-69
2021/10/22 08:08:12;;;;;;;18.17;16.70;;;7.70;99.90;;;;;;5088345;28;21039;-69
2021/10/22 08:10:40;;;;;;;17.13;15.90;;;7.70;99.90;;;;;;5098515;28;20458;-68
2021/10/22 08:13:10;;;;;;;18.07;16.87;;;7.80;99.90;;;;;;5088238;28;20561;-69
2021/10/22 08:15:39;;;;;;;17.67;16.20;;;7.80;99.90;;;;;;5081833;28;21046;-69
2021/10/22 08:18:08;;;;;;;17.27;15.67;;;7.90;99.90;;;;;;5078552;28;20468;-69
2021/10/22 08:20:36;;;;;;;18.23;16.63;;;8.00;99.90;;;;;;5084439;28;20491;-69
2021/10/22 08:23:03;;;;;;;17.83;16.30;;;8.10;99.90;;;;;;5081366;28;20510;-69
2021/10/22 08:25:33;;;;;;;18.30;16.67;;;8.20;99.90;;;;;;5083749;28;20461;-69
2021/10/22 08:28:00;;;;;;;17.60;16.30;;;8.40;99.90;;;;;;5081247;28;20469;-69
2021/10/22 08:30:29;;;;;;;17.80;16.40;;;8.70;99.90;;;;;;5087129;28;20467;-69
2021/10/22 08:32:57;;;;;;;17.30;16.13;;;8.70;99.90;;;;;;5088897;28;20966;-69
2021/10/22 08:35:28;;;;;;;19.03;17.13;;;8.90;99.90;;;;;;5092262;28;20458;-69
2021/10/22 08:37:55;;;;;;;18.43;16.90;;;9.20;99.90;;;;;;5085292;28;20524;-69
2021/10/22 08:40:23;;;;;;;16.83;15.90;;;9.30;99.90;;;;;;5085790;28;20489;-69
2021/10/22 08:42:52;;;;;;;17.27;15.87;;;9.50;99.90;;;;;;5083105;28;20463;-69
2021/10/22 08:45:20;;;;;;;18.00;16.63;;;9.40;99.90;;;;;;5090254;28;20462;-69
2021/10/22 08:47:47;;;;;;;17.73;16.47;;;9.50;99.90;;;;;;5097273;28;20469;-69
2021/10/22 08:50:16;;;;;;;18.13;16.80;;;9.60;99.90;;;;;;5086652;28;20640;-69
2021/10/22 08:52:43;;;;;;;18.07;16.43;;;9.50;99.90;;;;;;5076526;28;20465;-69
2021/10/22 08:55:11;;;;;;;18.00;16.50;;;9.40;99.90;;;;;;5080135;28;20486;-69
2021/10/22 08:57:42;;;;;;;19.73;17.37;;;9.40;99.90;;;;;;5085743;28;20503;-69
2021/10/22 09:00:55;;;;;;;17.87;16.53;;;9.40;99.90;;;;;;5076050;28;21024;-69
2021/10/22 09:03:52;;;;;;;23.57;16.93;;;9.60;99.90;;;;;;4977777;28;20466;-69
2021/10/22 09:13:17;;;;;;;17.83;16.43;;;9.90;99.90;;;;;;4920930;28;20596;-71
2021/10/22 09:15:45;;;;;;;17.67;16.07;;;9.90;99.90;;;;;;5050118;28;20597;-69
2021/10/22 09:18:16;;;;;;;18.10;16.70;;;9.90;99.90;;;;;;5085029;28;20497;-72
2021/10/22 09:20:50;;;;;;;17.50;16.00;;;9.90;99.90;;;;;;5089090;28;20468;-71
2021/10/22 09:23:25;;;;;;;17.67;15.97;;;9.80;99.90;;;;;;5091139;28;20492;-71
2021/10/22 09:25:53;;;;;;;16.60;15.60;;;9.90;99.90;;;;;;5087557;28;20547;-70
2021/10/22 09:28:27;;;;;;;16.33;15.43;;;9.80;99.90;;;;;;5088263;28;20492;-69
2021/10/22 09:30:55;;;;;;;16.83;15.60;;;9.70;99.90;;;;;;5086144;28;20529;-69
2021/10/22 09:33:23;;;;;;;18.03;16.47;;;9.70;99.90;;;;;;5092547;28;20457;-69
2021/10/22 09:35:53;;;;;;;17.73;16.27;;;9.60;99.90;;;;;;5088281;28;20554;-70
2021/10/22 09:38:23;;;;;;;17.83;16.20;;;9.60;99.90;;;;;;5090634;28;20488;-69
2021/10/22 09:40:53;;;;;;;17.30;15.73;;;9.70;99.90;;;;;;5085872;28;20938;-70
2021/10/22 09:43:26;;;;;;;18.33;16.60;;;9.80;99.90;;;;;;5079208;28;20481;-72
2021/10/22 09:46:08;;;;;;;17.07;15.67;;;9.80;99.90;;;;;;5084751;28;20458;-70
2021/10/22 09:48:36;;;;;;;19.80;17.10;;;10.00;99.90;;;;;;5093394;28;20468;-71
2021/10/22 09:51:23;;;;;;;17.83;16.70;;;10.20;99.90;;;;;;5088618;28;20466;-71
2021/10/22 09:53:51;;;;;;;17.30;16.20;;;10.20;99.90;;;;;;5084688;28;20458;-69
2021/10/22 09:56:22;;;;;;;17.40;15.93;;;10.30;99.90;;;;;;5080628;28;20488;-70
2021/10/22 09:59:02;;;;;;;17.00;15.67;;;10.40;99.90;;;;;;5088095;28;20466;-70
2021/10/22 10:01:31;;;;;;;17.20;15.83;;;10.50;99.90;;;;;;5082884;28;20465;-70
2021/10/22 10:04:00;;;;;;;17.57;16.07;;;10.40;99.90;;;;;;5089619;28;20832;-69
2021/10/22 10:06:28;;;;;;;17.60;16.00;;;10.40;99.90;;;;;;5092713;28;20461;-71
2021/10/22 10:08:55;;;;;;;18.97;16.97;;;10.50;99.90;;;;;;5096784;28;20630;-69
2021/10/22 10:11:25;;;;;;;17.27;15.70;;;10.90;99.90;;;;;;5085570;28;20821;-70
2021/10/22 10:13:52;;;;;;;17.10;15.70;;;11.20;99.90;;;;;;5083107;28;20466;-69
2021/10/22 10:16:23;;;;;;;18.33;16.77;;;11.50;99.90;;;;;;5082000;28;20458;-70
2021/10/22 10:18:56;;;;;;;17.20;15.57;;;11.50;99.90;;;;;;5087431;28;20449;-72
2021/10/22 10:21:25;;;;;;;16.80;15.40;;;11.50;99.90;;;;;;5087253;28;20504;-72
2021/10/22 10:23:54;;;;;;;20.90;15.17;;;11.50;99.90;;;;;;5080085;28;21105;-69
2021/10/22 10:26:26;;;;;;;17.77;16.07;;;11.70;99.90;;;;;;5082096;28;20828;-70
2021/10/22 10:28:55;;;;;;;15.93;14.80;;;12.00;99.90;;;;;;5083254;28;20552;-70
2021/10/22 10:31:34;;;;;;;16.80;15.50;;;12.10;99.90;;;;;;5081507;28;20455;-70
2021/10/22 10:34:02;;;;;;;16.73;15.50;;;12.30;99.90;;;;;;5078195;28;20828;-70
2021/10/22 10:36:45;;;;;;;17.33;15.93;;;12.20;99.90;;;;;;5085916;28;20458;-72
2021/10/22 10:39:12;;;;;;;15.53;14.23;;;11.80;99.90;;;;;;5090919;28;20460;-69
2021/10/22 10:41:39;;;;;;;16.67;15.20;;;11.90;99.90;;;;;;5089490;28;20476;-69
2021/10/22 10:44:31;;;;;;;16.17;14.70;;;12.00;99.90;;;;;;5074310;28;20470;-69
2021/10/22 10:47:00;;;;;;;17.00;14.87;;;12.30;99.90;;;;;;5074807;28;20563;-70
2021/10/22 10:50:01;;;;;;;16.50;14.93;;;12.50;99.90;;;;;;5082449;28;20465;-70
2021/10/22 10:52:52;;;;;;;16.10;14.53;;;12.50;99.90;;;;;;5093662;28;20455;-70
2021/10/22 10:55:25;;;;;;;16.47;15.07;;;12.60;99.90;;;;;;5085354;28;20494;-69
2021/10/22 10:57:54;;;;;;;17.63;15.90;;;12.90;99.90;;;;;;5093916;28;20474;-69
2021/10/22 11:00:23;;;;;;;16.37;15.07;;;13.10;99.90;;;;;;5081840;28;20462;-69
2021/10/22 11:03:15;;;;;;;16.93;15.90;;;13.10;99.90;;;;;;5085674;28;20461;-69
2021/10/22 11:06:16;;;;;;;20.87;15.77;;;13.00;99.90;;;;;;5080779;28;20977;-72
2021/10/22 11:08:51;;;;;;;18.17;16.50;;;13.20;99.90;;;;;;5080083;28;20452;-71
2021/10/22 11:11:39;;;;;;;17.60;16.30;;;13.00;99.90;;;;;;5086349;28;20984;-71
2021/10/22 11:14:14;;;;;;;17.43;16.10;;;12.80;99.90;;;;;;5080796;28;20466;-69
2021/10/22 11:16:55;;;;;;;17.87;16.50;;;12.90;99.90;;;;;;5082631;28;20453;-69
2021/10/22 11:19:28;;;;;;;17.90;16.70;;;12.60;99.90;;;;;;5082842;28;20464;-70
2021/10/22 11:21:57;;;;;;;18.77;17.37;;;12.40;99.90;;;;;;5081820;28;20468;-69
2021/10/22 11:24:26;;;;;;;17.47;16.37;;;12.30;99.90;;;;;;5079916;28;20493;-69
2021/10/22 11:27:02;;;;;;;18.80;17.20;;;12.50;99.90;;;;;;5082250;28;20469;-72
2021/10/22 11:29:30;;;;;;;17.77;16.43;;;12.60;99.90;;;;;;5086229;28;20528;-69
2021/10/22 11:32:00;;;;;;;19.03;17.30;;;12.40;99.90;;;;;;5086128;28;20955;-69
2021/10/22 11:34:30;;;;;;;19.10;17.07;;;12.90;99.90;;;;;;5089980;28;20469;-69
2021/10/22 11:37:01;;;;;;;18.67;17.10;;;13.10;99.90;;;;;;5090631;28;20572;-70
2021/10/22 11:39:32;;;;;;;18.53;17.03;;;13.00;99.90;;;;;;5089080;28;20469;-70
2021/10/22 11:42:21;;;;;;;17.97;16.67;;;12.80;99.90;;;;;;5088440;28;20458;-71
2021/10/22 11:44:51;;;;;;;18.47;16.73;;;13.20;99.90;;;;;;5085480;28;20470;-70
2021/10/22 11:47:19;;;;;;;18.00;16.40;;;13.30;99.90;;;;;;5088242;28;20462;-70
2021/10/22 11:49:48;;;;;;;17.90;16.63;;;13.50;99.90;;;;;;5085021;28;20465;-71
2021/10/22 11:52:16;;;;;;;18.37;17.00;;;13.20;99.90;;;;;;5084670;28;20457;-72
2021/10/22 11:54:47;;;;;;;17.77;16.40;;;12.90;99.90;;;;;;5093207;28;20544;-73
2021/10/22 11:57:17;;;;;;;17.83;16.23;;;12.60;99.90;;;;;;5096321;28;20514;-71
2021/10/22 11:59:51;;;;;;;17.97;16.70;;;12.30;99.90;;;;;;5093577;28;20469;-71
2021/10/22 12:02:20;;;;;;;17.67;16.17;;;12.20;99.90;;;;;;5079957;28;20560;-71
2021/10/22 12:04:55;;;;;;;21.23;16.90;;;12.30;99.90;;;;;;5089216;28;20497;-73
2021/10/22 12:07:22;;;;;;;17.87;16.70;;;12.80;99.90;;;;;;5094321;28;20495;-73
2021/10/22 12:09:53;;;;;;;17.60;16.40;;;13.00;99.90;;;;;;5091280;28;20466;-72
2021/10/22 12:12:20;;;;;;;18.70;16.87;;;13.00;99.90;;;;;;5095120;28;20978;-72
2021/10/22 12:14:49;;;;;;;19.17;16.63;;;13.00;99.90;;;;;;5096608;28;20584;-72
2021/10/22 12:17:20;;;;;;;18.33;17.00;;;12.80;99.90;;;;;;5086652;28;20551;-74
2021/10/22 12:19:50;;;;;;;18.67;16.93;;;12.70;99.90;;;;;;5089277;28;20454;-72
2021/10/22 12:22:24;;;;;;;17.80;16.30;;;12.50;99.90;;;;;;5083984;28;20465;-71
2021/10/22 12:24:52;;;;;;;17.10;15.80;;;12.50;99.90;;;;;;5087544;28;20453;-72
2021/10/22 12:27:20;;;;;;;17.27;15.80;;;12.50;99.90;;;;;;5089652;28;21024;-71
2021/10/22 12:29:57;;;;;;;17.57;16.47;;;12.30;99.90;;;;;;5083956;28;20811;-72
2021/10/22 12:32:43;;;;;;;17.27;16.00;;;12.30;99.90;;;;;;5087644;28;20465;-72
2021/10/22 12:35:24;;;;;;;17.80;16.60;;;12.50;99.90;;;;;;5096397;28;20465;-73
2021/10/22 12:38:03;;;;;;;16.43;15.53;;;12.60;99.90;;;;;;5083562;28;20494;-73
2021/10/22 12:40:33;;;;;;;17.87;16.40;;;12.70;99.90;;;;;;5083986;28;20469;-70
2021/10/22 12:43:22;;;;;;;17.43;16.10;;;12.50;99.90;;;;;;5087668;28;20948;-71
2021/10/22 12:45:51;;;;;;;17.00;15.80;;;12.40;99.90;;;;;;5067293;28;20498;-71
2021/10/22 12:48:20;;;;;;;18.27;16.50;;;12.20;99.90;;;;;;5084566;28;20461;-74
2021/10/22 12:50:49;;;;;;;17.43;16.07;;;12.20;99.90;;;;;;5080866;28;20455;-71
2021/10/22 12:53:19;;;;;;;17.40;16.27;;;12.10;99.90;;;;;;5089682;28;20465;-71
2021/10/22 12:55:59;;;;;;;19.40;17.43;;;12.00;99.90;;;;;;5085978;28;20480;-71